createdAt,value
2022-12-01T00:03:56.708Z,3.90
2022-12-01T00:09:20.152Z,4.30
2022-12-01T00:14:24.000Z,3.90
2022-12-01T00:19:28.315Z,4.10
2022-12-01T00:24:31.513Z,4.10
2022-12-01T00:29:35.500Z,3.70
2022-12-01T00:34:40.105Z,4.00
2022-12-01T00:39:43.618Z,4.10
2022-12-01T00:44:48.870Z,4.00
2022-12-01T00:49:52.895Z,4.30
2022-12-01T00:54:56.074Z,4.50
2022-12-01T00:59:59.248Z,4.50
2022-12-01T01:05:02.470Z,4.40
2022-12-01T01:10:06.699Z,3.80
2022-12-01T01:15:10.493Z,3.00
2022-12-01T01:20:14.020Z,4.60
2022-12-01T01:25:17.233Z,4.00
2022-12-01T01:30:22.475Z,3.70
2022-12-01T01:35:25.791Z,3.50
2022-12-01T01:40:31.006Z,2.50
2022-12-01T01:45:34.852Z,3.90
2022-12-01T01:50:38.155Z,3.40
2022-12-01T01:55:41.437Z,3.70
2022-12-01T02:00:45.809Z,3.70
2022-12-01T02:05:49.689Z,3.70
2022-12-01T02:11:13.178Z,2.70
2022-12-01T02:16:29.968Z,3.10
2022-12-01T02:21:49.110Z,2.80
2022-12-01T02:27:21.248Z,3.30
2022-12-01T02:33:01.587Z,3.20
2022-12-01T02:38:10.755Z,3.80
2022-12-01T02:43:44.720Z,2.80
2022-12-01T02:48:53.976Z,4.10
2022-12-01T02:54:03.735Z,5.20
2022-12-01T02:59:12.735Z,3.60
2022-12-01T03:04:37.215Z,2.70
2022-12-01T03:09:49.833Z,2.80
2022-12-01T03:14:59.412Z,2.40
2022-12-01T03:20:13.197Z,2.10
2022-12-01T03:25:19.546Z,2.20
2022-12-01T03:30:28.932Z,2.50
2022-12-01T03:35:39.946Z,2.30
2022-12-01T03:40:45.700Z,3.10
2022-12-01T03:46:10.901Z,2.50
2022-12-01T03:51:36.882Z,3.30
2022-12-01T03:56:47.834Z,3.60
2022-12-01T04:01:51.805Z,3.60
2022-12-01T04:06:55.183Z,3.20
2022-12-01T04:12:17.403Z,3.50
2022-12-01T04:17:20.659Z,4.70
2022-12-01T04:22:25.193Z,3.20
2022-12-01T04:27:28.480Z,4.90
2022-12-01T04:32:31.655Z,4.30
2022-12-01T04:37:35.467Z,4.70
2022-12-01T04:42:38.574Z,5.10
2022-12-01T04:47:41.814Z,5.30
2022-12-01T04:52:45.024Z,4.10
2022-12-01T04:57:48.602Z,4.60
2022-12-01T05:02:51.835Z,5.60
2022-12-01T05:07:55.198Z,5.10
2022-12-01T05:12:58.689Z,5.60
2022-12-01T05:18:01.994Z,5.00
2022-12-01T05:23:06.468Z,6.20
2022-12-01T05:28:10.358Z,6.10
2022-12-01T05:33:13.582Z,5.60
2022-12-01T05:38:17.284Z,5.70
2022-12-01T05:43:27.184Z,6.00
2022-12-01T05:48:32.599Z,6.80
2022-12-01T05:53:36.016Z,7.00
2022-12-01T05:58:39.281Z,6.80
2022-12-01T06:03:42.575Z,7.40
2022-12-01T06:08:45.919Z,7.20
2022-12-01T06:13:49.139Z,7.20
2022-12-01T06:18:52.612Z,7.50
2022-12-01T06:23:55.945Z,6.00
2022-12-01T06:28:59.143Z,7.00
2022-12-01T06:34:02.463Z,7.10
2022-12-01T06:39:13.080Z,6.40
2022-12-01T06:44:16.313Z,6.70
2022-12-01T06:49:20.656Z,7.00
2022-12-01T06:54:23.830Z,7.20
2022-12-01T06:59:27.333Z,7.00
2022-12-01T07:04:31.441Z,7.50
2022-12-01T07:09:59.989Z,6.60
2022-12-01T07:15:04.673Z,5.70
2022-12-01T07:20:10.566Z,15.30
2022-12-01T07:25:14.082Z,8.40
2022-12-01T07:30:17.559Z,8.70
2022-12-01T07:35:20.778Z,15.10
2022-12-01T07:40:24.128Z,9.50
2022-12-01T07:45:27.444Z,9.40
2022-12-01T07:50:30.903Z,11.30
2022-12-01T07:55:34.256Z,8.00
2022-12-01T08:00:37.547Z,9.10
2022-12-01T08:05:41.075Z,9.10
2022-12-01T08:10:44.316Z,10.00
2022-12-01T08:15:47.732Z,10.00
2022-12-01T08:20:51.707Z,6.80
2022-12-01T08:25:54.997Z,9.60
2022-12-01T08:30:58.201Z,10.20
2022-12-01T08:36:05.988Z,7.30
2022-12-01T08:41:09.742Z,8.60
2022-12-01T08:46:13.765Z,10.50
2022-12-01T08:51:19.559Z,11.00
2022-12-01T08:56:36.608Z,10.40
2022-12-01T09:01:52.381Z,9.60
2022-12-01T09:06:58.559Z,11.00
2022-12-01T09:12:01.862Z,13.70
2022-12-01T09:17:06.257Z,12.60
2022-12-01T09:22:12.039Z,8.90
2022-12-01T09:27:15.798Z,10.90
2022-12-01T09:32:21.914Z,11.50
2022-12-01T09:37:25.071Z,12.80
2022-12-01T09:42:33.815Z,10.00
2022-12-01T09:47:40.326Z,8.00
2022-12-01T09:52:47.451Z,9.30
2022-12-01T09:57:53.957Z,8.10
2022-12-01T10:03:01.305Z,10.50
2022-12-01T10:08:08.322Z,9.20
2022-12-01T10:13:19.314Z,12.70
2022-12-01T10:18:34.896Z,11.30
2022-12-01T10:23:57.109Z,9.20
2022-12-01T10:29:28.259Z,6.70
2022-12-01T10:34:42.575Z,10.50
2022-12-01T10:39:49.234Z,10.60
2022-12-01T10:44:55.458Z,7.90
2022-12-01T10:49:59.217Z,10.20
2022-12-01T10:55:05.995Z,10.80
2022-12-01T11:00:57.889Z,10.90
2022-12-01T11:05:57.628Z,10.70
2022-12-01T11:11:01.941Z,11.70
2022-12-01T11:16:07.599Z,12.10
2022-12-01T11:21:17.237Z,12.70
2022-12-01T11:26:25.155Z,8.80
2022-12-01T11:31:50.603Z,10.30
2022-12-01T11:37:07.770Z,8.50
2022-12-01T11:42:22.294Z,11.70
2022-12-01T11:47:27.970Z,9.80
2022-12-01T11:52:34.338Z,10.50
2022-12-01T11:57:42.935Z,10.70
2022-12-01T12:03:17.695Z,8.30
2022-12-01T12:08:27.118Z,10.50
2022-12-01T12:13:49.185Z,9.20
2022-12-01T12:19:17.728Z,10.10
2022-12-01T12:24:39.809Z,9.00
2022-12-01T12:29:42.901Z,9.20
2022-12-01T12:34:48.943Z,7.70
2022-12-01T12:39:58.563Z,10.60
2022-12-01T12:45:02.249Z,9.20
2022-12-01T12:50:23.142Z,9.70
2022-12-01T12:55:37.882Z,10.50
2022-12-01T13:00:46.639Z,10.80
2022-12-01T13:06:06.265Z,9.40
2022-12-01T13:12:00.594Z,8.80
2022-12-01T13:17:19.299Z,7.30
2022-12-01T13:22:30.760Z,6.80
2022-12-01T13:27:43.061Z,8.10
2022-12-01T13:32:47.890Z,8.90
2022-12-01T13:37:51.299Z,8.60
2022-12-01T13:43:08.565Z,9.70
2022-12-01T13:48:51.137Z,11.30
2022-12-01T13:54:30.413Z,11.30
2022-12-01T14:00:02.685Z,10.80
2022-12-01T14:05:24.910Z,8.80
2022-12-01T14:10:32.910Z,11.00
2022-12-01T14:15:42.870Z,10.80
2022-12-01T14:20:48.619Z,12.60
2022-12-01T14:26:18.873Z,12.10
2022-12-01T14:31:34.331Z,11.20
2022-12-01T14:37:12.269Z,11.00
2022-12-01T14:42:51.671Z,10.90
2022-12-01T14:48:05.166Z,11.80
2022-12-01T14:53:34.456Z,12.00
2022-12-01T14:58:51.036Z,13.70
2022-12-01T15:03:58.831Z,12.30
2022-12-01T15:09:36.489Z,10.00
2022-12-01T15:14:48.895Z,12.30
2022-12-01T15:19:52.921Z,12.30
2022-12-01T15:25:14.064Z,12.30
2022-12-01T15:30:19.312Z,11.20
2022-12-01T15:35:24.203Z,9.70
2022-12-01T15:46:05.209Z,13.80
2022-12-01T15:51:26.006Z,11.60
2022-12-01T15:56:34.593Z,15.30
2022-12-01T16:01:38.834Z,13.30
2022-12-01T16:06:42.726Z,11.10
2022-12-01T16:12:17.983Z,12.30
2022-12-01T16:17:41.624Z,14.50
2022-12-01T16:22:52.867Z,13.00
2022-12-01T16:27:57.425Z,10.30
2022-12-01T16:33:18.091Z,15.70
2022-12-01T16:38:25.974Z,14.00
2022-12-01T16:43:30.007Z,15.30
2022-12-01T16:48:35.184Z,15.40
2022-12-01T16:53:38.442Z,10.20
2022-12-01T16:58:42.622Z,15.60
2022-12-01T17:03:45.788Z,12.50
2022-12-01T17:08:49.168Z,11.80
2022-12-01T17:13:55.649Z,10.10
2022-12-01T17:19:04.403Z,10.20
2022-12-01T17:24:09.496Z,10.10
2022-12-01T17:29:13.681Z,11.80
2022-12-01T17:34:17.189Z,11.50
2022-12-01T17:39:20.367Z,8.90
2022-12-01T17:44:23.742Z,9.70
2022-12-01T17:49:26.911Z,9.00
2022-12-01T17:54:30.143Z,11.20
2022-12-01T17:59:34.854Z,11.70
2022-12-01T18:04:38.088Z,11.90
2022-12-01T18:09:41.305Z,12.60
2022-12-01T18:14:44.801Z,12.40
2022-12-01T18:19:51.161Z,11.20
2022-12-01T18:24:54.496Z,11.60
2022-12-01T18:29:57.880Z,12.20
2022-12-01T18:35:01.400Z,12.40
2022-12-01T18:40:05.557Z,12.10
2022-12-01T18:45:09.493Z,11.20
2022-12-01T18:50:13.121Z,8.20
2022-12-01T18:55:16.401Z,14.40
2022-12-01T19:00:23.144Z,11.30
2022-12-01T19:05:26.696Z,10.20
2022-12-01T19:10:30.043Z,11.00
2022-12-01T19:15:37.557Z,8.10
2022-12-01T19:20:48.634Z,10.00
2022-12-01T19:25:51.957Z,8.60
2022-12-01T19:30:55.187Z,10.40
2022-12-01T19:36:07.682Z,7.80
2022-12-01T19:41:13.109Z,7.60
2022-12-01T19:46:19.513Z,8.60
2022-12-01T19:51:26.688Z,9.80
2022-12-01T19:56:31.863Z,8.60
2022-12-01T20:01:35.268Z,9.90
2022-12-01T20:06:42.928Z,6.20
2022-12-01T20:11:46.113Z,8.60
2022-12-01T20:16:49.558Z,8.20
2022-12-01T20:21:52.894Z,8.40
2022-12-01T20:26:57.822Z,8.30
2022-12-01T20:32:03.301Z,8.20
2022-12-01T20:37:06.562Z,9.10
2022-12-01T20:42:09.867Z,9.10
2022-12-01T20:47:19.167Z,9.00
2022-12-01T20:52:22.514Z,9.60
2022-12-01T20:57:26.823Z,9.60
2022-12-01T21:02:30.181Z,9.10
2022-12-01T21:07:33.501Z,8.60
2022-12-01T21:12:58.587Z,9.30
2022-12-01T21:18:14.401Z,9.60
2022-12-01T21:23:20.974Z,9.50
2022-12-01T21:28:26.900Z,9.30
2022-12-01T21:33:35.877Z,9.20
2022-12-01T21:38:39.140Z,9.50
2022-12-01T21:43:42.561Z,10.80
2022-12-01T21:48:47.002Z,7.80
2022-12-01T21:53:52.456Z,6.70
2022-12-01T21:59:06.642Z,8.40
2022-12-01T22:04:21.065Z,7.80
2022-12-01T22:09:30.023Z,6.30
2022-12-01T22:14:35.466Z,7.50
2022-12-01T22:19:44.415Z,9.50
2022-12-01T22:25:22.552Z,8.80
2022-12-01T22:30:25.898Z,9.00
2022-12-01T22:35:48.607Z,7.20
2022-12-01T22:41:02.929Z,8.70
2022-12-01T22:46:43.045Z,8.40
2022-12-01T22:51:51.918Z,7.80
2022-12-01T22:57:08.752Z,9.00
2022-12-01T23:02:25.171Z,8.70
2022-12-01T23:07:41.923Z,5.60
2022-12-01T23:12:48.125Z,8.90
2022-12-01T23:17:52.365Z,9.60
2022-12-01T23:22:57.559Z,8.30
2022-12-01T23:28:07.220Z,9.30
2022-12-01T23:33:24.871Z,9.30
2022-12-01T23:38:43.649Z,7.50
2022-12-01T23:43:46.975Z,8.00
2022-12-01T23:48:58.746Z,8.40
2022-12-01T23:54:10.597Z,8.80
2022-12-01T23:59:14.786Z,7.00
